METAR COR LDZA 221200Z 03011KT 340V060 9999 FEW025 BKN043 12/04 Q1023 BECMG 03015KT =
METAR COR LDZA 221130Z VRB03KT 9999 FEW020 SCT045 12/05 Q1023 NOSIG =
METAR LDZA 221100Z 00000KT 9999 SCT047 11/05 Q1023 NOSIG =
METAR LDZA 221030Z 00000KT 6000 FEW020 SCT047 09/05 Q1024 NOSIG =
METAR LDZA 221000Z 00000KT 6000 FEW020 08/05 Q1024 NOSIG =
METAR LDZA 220930Z 00000KT 5000 -RA BR FEW044 07/05 Q1024 BECMG NSW=
METAR COR LDZA 220900Z VRB01KT 6000 FEW047 07/04 Q1023 NOSIG =
METAR LDZA 220830Z 00000KT 6000 -RA FEW047 06/04 Q1023 TEMPO 4000 =
METAR LDZA 220800Z 01004KT 320V070 5000 -RA FEW047 05/03 Q1023 NOSIG =
METAR LDZA 220730Z VRB01KT 6000 -RA NSC 05/03 Q1022 NOSIG =
METAR COR LDZA 220700Z 02004KT 360V060 6000 NSC 04/02 Q1022 NOSIG =
METAR LDZA 220630Z VRB04KT 6000 NSC 04/02 Q1022 NOSIG =
METAR LDZA 220600Z 23004KT 8000 NSC 04/01 Q1021 NOSIG =
METAR LDZA 220530Z 22003KT CAVOK 03/01 Q1021 NOSIG =
METAR LDZA 220500Z 27003KT 200V320 CAVOK 03/01 Q1022 NOSIG =
METAR LDZA 220430Z 23004KT CAVOK 04/01 Q1022 NOSIG =
METAR LDZA 220400Z VRB02KT CAVOK 04/01 Q1022 NOSIG =
METAR LDZA 220330Z 22004KT CAVOK 04/01 Q1022 NOSIG =
METAR LDZA 220300Z 22003KT CAVOK 04/01 Q1023 NOSIG =
METAR LDZA 220230Z 21004KT CAVOK 05/02 Q1023 NOSIG =
METAR LDZA 220200Z 24005KT CAVOK 06/02 Q1023 NOSIG=
METAR LDZA 220130Z 25006KT CAVOK 06/03 Q1024 NOSIG=
METAR LDZA 220100Z 25002KT CAVOK 06/03 Q1024 NOSIG =
METAR COR LDZA 220030Z 28003KT CAVOK 06/03 Q1024 NOSIG=
METAR LDZA 220000Z 30002KT CAVOK 05/03 Q1024 NOSIG =
METAR LDZA 212330Z VRB01KT CAVOK 06/02 Q1024 NOSIG =
METAR LDZA 212300Z VRB02KT 9999 -RA NSC 06/03 Q1024 NOSIG =
METAR LDZA 212230Z 00000KT CAVOK 06/02 Q1026 NOSIG =
METAR LDZA 212200Z 00000KT CAVOK 05/01 Q1025 NOSIG =
METAR LDZA 212130Z VRB01KT CAVOK 05/01 Q1025 NOSIG =
METAR LDZA 212100Z 00000KT CAVOK 05/01 Q1025 NOSIG =
METAR LDZA 212030Z 00000KT CAVOK 05/01 Q1025 NOSIG =
METAR LDZA 212000Z 00000KT CAVOK 05/01 Q1025 NOSIG =
METAR LDZA 211930Z 00000KT CAVOK 05/00 Q1025 NOSIG =
METAR LDZA 211900Z 00000KT CAVOK 06/00 Q1025 NOSIG =
METAR LDZA 211830Z 00000KT CAVOK 06/00 Q1025 NOSIG =
METAR LDZA 211800Z 00000KT CAVOK 08/M00 Q1025 NOSIG =
METAR LDZA 211730Z 05002KT CAVOK 10/00 Q1025 NOSIG =
METAR LDZA 211700Z 00000KT CAVOK 11/01 Q1025 NOSIG =
METAR COR LDZA 211630Z 00000KT CAVOK 13/01 Q1025 NOSIG =
METAR COR LDZA 211600Z 00000KT CAVOK 14/01 Q1025 NOSIG =
METAR COR LDZA 211530Z 00000KT CAVOK 16/01 Q1025 NOSIG =
METAR LDZA 211500Z VRB01KT CAVOK 16/01 Q1025 NOSIG =
METAR COR LDZA 211430Z VRB01KT CAVOK 16/01 Q1026 NOSIG =
METAR LDZA 211400Z 28003KT 220V020 CAVOK 15/01 Q1026 NOSIG =
METAR LDZA 211330Z VRB02KT CAVOK 15/01 Q1026 NOSIG =
METAR LDZA 211300Z VRB02KT CAVOK 15/01 Q1026 NOSIG =
METAR LDZA 211230Z VRB03KT CAVOK 14/02 Q1027 NOSIG =
METAR LDZA 211200Z VRB02KT CAVOK 13/01 Q1027 NOSIG =
METAR COR LDZA 211130Z VRB02KT CAVOK 13/01 Q1028 NOSIG =
METAR LDZA 211100Z VRB01KT CAVOK 12/01 Q1028 NOSIG =
METAR LDZA 211030Z VRB01KT CAVOK 11/03 Q1028 NOSIG =
METAR LDZA 211000Z VRB01KT CAVOK 11/02 Q1029 NOSIG=
METAR LDZA 210930Z 00000KT 8000 NSC 09/02 Q1029 NOSIG =
METAR LDZA 210900Z 00000KT 7000 NSC 07/02 Q1029 NOSIG =
METAR LDZA 210830Z VRB02KT 7000 NSC 06/02 Q1029 NOSIG =
METAR LDZA 210800Z 00000KT 5000 BR NSC 04/01 Q1029 BECMG NSW =
METAR LDZA 210730Z VRB02KT 5000 BR NSC 02/01 Q1029 NOSIG=
METAR LDZA 210700Z 00000KT 5000 BR NSC 00/M01 Q1028 NOSIG =
METAR COR LDZA 210630Z 24002KT 4000 BR NSC M00/M02 Q1028 NOSIG =
METAR LDZA 210600Z 23003KT 6000 NSC M00/M01 Q1028 NOSIG =
METAR LDZA 210530Z 25001KT CAVOK M00/M02 Q1027 NOSIG =
METAR LDZA 210500Z 27001KT CAVOK M00/M02 Q1027 NOSIG =
METAR LDZA 210430Z 26002KT CAVOK M00/M01 Q1027 NOSIG =
METAR LDZA 210400Z 24002KT CAVOK M00/M01 Q1027 NOSIG=
METAR LDZA 210330Z 00000KT CAVOK 00/M01 Q1027 NOSIG=
METAR LDZA 210300Z 00000KT CAVOK 01/M01 Q1027 NOSIG=
METAR LDZA 210230Z 00000KT CAVOK 01/M01 Q1027 NOSIG=
METAR LDZA 210200Z VRB02KT CAVOK 01/M01 Q1027 NOSIG=
METAR LDZA 210130Z 25001KT CAVOK 01/M00 Q1027 NOSIG=
METAR LDZA 210100Z 26002KT CAVOK 02/M00 Q1027 NOSIG=
METAR LDZA 210030Z 00000KT CAVOK 01/M01 Q1027 NOSIG=